• Join FlightAware (Why Join?)
  • Login
  • US Flag 
07:21PM EDT


 

Airport Tracker/Info


-or-


 

Live Flight TrackerFlight Track Log ✈ AWI3754 ✈ 01-Jul-2013 ✈ KAGS - KCLT

Flight Track Log - Related Links

Times and Time Zones

All times are in EDT time to prevent confusion due to time zone crossing. See the AWI3754 flight status page for this flight to view local times or setup timezone preferences in your user account.

Time Position Orientation Groundspeed Altitude Reporting Facility
EDT Latitude Longitude Course Direction KTS MPH feet Rate Location/Type
07:25PM 33.7448 -82.0434 346° North  Level FlightAware Approximate
07:25PM 33.2825 -81.9936 47° Northeast 170 196 6,100  Level Atlanta Center
07:26PM 33.8720 -82.0675 352° North  Level FlightAware Approximate
07:26PM 33.3478 -82.0194 342° North 117 135 7,800  Level Atlanta Center
07:27PM 33.9996 -82.0888 352° North  Level FlightAware Approximate
07:27PM 33.4314 -82.0300 354° North 212 244 9,900  Level Atlanta Center
07:28PM 34.1264 -82.1162 347° North  Level FlightAware Approximate
07:28PM 33.5192 -82.0456 352° North 261 300 11,100  Level Atlanta Center
07:29PM 34.2514 -82.1481 47° Northeast  Level FlightAware Approximate
07:29PM 33.6175 -82.0581 354° North 315 362 11,000  Level Atlanta Center
07:30PM 34.3391 -82.0338 47° Northeast  Level FlightAware Approximate
07:30PM 33.7075 -82.0711 353° North 320 368 11,000  Level Atlanta Center
07:31PM 33.7975 -82.0864 352° North 325 374 11,000  Level Atlanta Center
07:32PM 33.8853 -82.0994 353° North 325 374 11,000  Level Atlanta Center
07:33PM 33.9733 -82.1125 353° North 320 368 11,000  Level Atlanta Center
07:34PM 34.0653 -82.1256 353° North 320 368 11,000  Level Atlanta Center
07:35PM 34.1503 -82.0933 17° North 310 357 11,000 60 Level Atlanta Center
07:36PM 34.2347 -82.0136 38° Northeast 341 392 11,200 480 Climbing Atlanta Center
07:37PM 34.3231 -81.9286 38° Northeast 365 420 12,000 360 Climbing Atlanta Center
07:38PM 34.4111 -81.8458 38° Northeast 388 447 12,000  Level Atlanta Center
07:39PM 34.4994 -81.7628 38° Northeast 393 452 12,000  Level Atlanta Center
07:40PM 34.5817 -81.6900 36° Northeast 395 455 12,000  Level Atlanta Center
07:41PM 34.6531 -81.6172 40° Northeast 332 382 12,000  Level Atlanta Center
07:42PM 34.7353 -81.5442 36° Northeast 332 382 12,000  Level Atlanta Center
07:43PM 34.7981 -81.4614 47° Northeast 333 383 12,000 -300 Level Atlanta Center
07:44PM 34.8611 -81.3783 47° Northeast 331 381 11,400 -900 Descending Atlanta Center
07:45PM 34.9181 -81.3081 45° Northeast 320 368 10,300 -660 Descending Atlanta Center
07:46PM 34.9889 -81.2119 48° Northeast 307 353 10,000 -180 Descending Atlanta Center
07:47PM 35.0356 -81.1519 46° Northeast 314 361 10,000 -360 Level Atlanta Center
07:48PM 35.0983 -81.0761 45° Northeast 314 361 9,400 -660 Descending Atlanta Center
07:49PM 35.2025 -81.0700 North 304 350 8,600 -1,260 Descending Atlanta Center
07:50PM 35.2925 -81.0794 355° North 299 344 6,600 -1,740 Descending Atlanta Center
07:51PM 35.3678 -81.0869 355° North 290 334 5,100 -1,320 Descending Atlanta Center
07:52PM 35.4206 -81.0264 43° Northeast 241 277 4,000 -1,080 Descending Atlanta Center
07:53PM 35.3817 -80.9744 133° Southeast 212 244 3,000 -1,140 Descending Atlanta Center